Terminal Aerodrome Forecast
Issued by NWS Miami, FL

Home | Current Version | Previous Version | Text Only | Print | Product List | Glossary On
Versions: 1 2 3 4 5 6 7 8 9 10 11 12 13 14 15 16 17 18 19 20 21 22 23 24 25 26 27 28 29 30 31 32 33 34 35 36 37 38 39 40 41 42 43
000
FTUS42 KMFL 042017 AAA
TAFFLL
TAF AMD
KFLL 042017Z 0420/0518 13009KT P6SM VCTS SCT040CB BKN050 BKN090
      TEMPO 0420/0422 5SM TSRA SCT020 BKN040CB OVC090
     FM050000 VRB05KT P6SM VCSH FEW025 SCT080 BKN120
     FM050200 29003KT P6SM FEW025 SCT250=

USA.gov is the U.S. government's official web portal to all federal, state and local government web resources and services.